sensor_id;sensor_type;location;lat;lon;timestamp;pressure;altitude;pressure_sealevel;temperature;humidity
63665;BME280;49820;33.966;73.390;2022-09-09T00:01:57;79074.06;;;15.98;100.00
63665;BME280;49820;33.966;73.390;2022-09-09T00:04:35;79061.84;;;16.01;100.00
63665;BME280;49820;33.966;73.390;2022-09-09T00:09:59;79072.41;;;16.08;100.00
63665;BME280;49820;33.966;73.390;2022-09-09T00:15:54;79076.41;;;16.09;100.00
63665;BME280;49820;33.966;73.390;2022-09-09T00:21:21;79069.28;;;16.01;100.00
63665;BME280;49820;33.966;73.390;2022-09-09T00:23:54;79072.63;;;16.01;100.00
63665;BME280;49820;33.966;73.390;2022-09-09T00:26:36;79068.03;;;15.98;100.00
63665;BME280;49820;33.966;73.390;2022-09-09T00:32:12;79074.88;;;15.95;100.00
63665;BME280;49820;33.966;73.390;2022-09-09T00:34:49;79086.59;;;16.06;100.00
63665;BME280;49820;33.966;73.390;2022-09-09T00:37:20;79063.06;;;15.86;100.00
63665;BME280;49820;33.966;73.390;2022-09-09T00:39:55;79095.19;;;16.11;100.00
63665;BME280;49820;33.966;73.390;2022-09-09T00:48:08;79083.19;;;15.89;100.00
63665;BME280;49820;33.966;73.390;2022-09-09T00:56:14;79106.56;;;15.94;100.00
63665;BME280;49820;33.966;73.390;2022-09-09T00:58:50;79075.31;;;15.64;100.00
63665;BME280;49820;33.966;73.390;2022-09-09T01:01:24;79115.81;;;15.81;100.00
63665;BME280;49820;33.966;73.390;2022-09-09T01:03:55;79126.69;;;15.77;100.00
63665;BME280;49820;33.966;73.390;2022-09-09T01:06:33;79127.22;;;15.81;100.00
63665;BME280;49820;33.966;73.390;2022-09-09T01:12:09;79124.31;;;16.06;100.00
63665;BME280;49820;33.966;73.390;2022-09-09T01:14:47;79113.91;;;16.15;100.00
63665;BME280;49820;33.966;73.390;2022-09-09T01:17:28;79134.47;;;16.43;100.00
63665;BME280;49820;33.966;73.390;2022-09-09T01:20:23;79143.81;;;16.65;100.00
63665;BME280;49820;33.966;73.390;2022-09-09T01:26:45;79131.34;;;17.09;100.00
63665;BME280;49820;33.966;73.390;2022-09-09T01:29:23;79130.31;;;17.36;100.00
63665;BME280;49820;33.966;73.390;2022-09-09T01:34:59;79128.03;;;18.09;100.00
63665;BME280;49820;33.966;73.390;2022-09-09T01:37:28;79108.75;;;18.17;100.00
63665;BME280;49820;33.966;73.390;2022-09-09T01:39:57;79152.22;;;18.61;100.00
63665;BME280;49820;33.966;73.390;2022-09-09T01:42:26;79143.47;;;18.76;100.00
63665;BME280;49820;33.966;73.390;2022-09-09T01:44:56;79156.16;;;19.11;100.00
63665;BME280;49820;33.966;73.390;2022-09-09T01:47:25;79154.78;;;19.41;100.00
63665;BME280;49820;33.966;73.390;2022-09-09T01:50:10;79154.16;;;19.70;100.00
63665;BME280;49820;33.966;73.390;2022-09-09T01:52:43;79135.25;;;19.83;100.00
63665;BME280;49820;33.966;73.390;2022-09-09T01:55:20;79144.88;;;20.09;100.00
63665;BME280;49820;33.966;73.390;2022-09-09T02:00:56;79145.88;;;20.58;100.00
63665;BME280;49820;33.966;73.390;2022-09-09T02:03:30;79158.69;;;20.87;100.00
63665;BME280;49820;33.966;73.390;2022-09-09T02:06:36;79172.91;;;21.15;100.00
63665;BME280;49820;33.966;73.390;2022-09-09T02:09:19;79146.22;;;21.32;100.00
63665;BME280;49820;33.966;73.390;2022-09-09T02:12:01;79152.34;;;21.83;100.00
63665;BME280;49820;33.966;73.390;2022-09-09T02:15:11;79154.31;;;21.85;100.00
63665;BME280;49820;33.966;73.390;2022-09-09T02:17:46;79159.56;;;22.14;100.00
63665;BME280;49820;33.966;73.390;2022-09-09T02:20:19;79151.81;;;22.06;100.00
63665;BME280;49820;33.966;73.390;2022-09-09T02:22:54;79163.47;;;22.17;100.00
63665;BME280;49820;33.966;73.390;2022-09-09T02:25:28;79156.38;;;21.84;100.00
63665;BME280;49820;33.966;73.390;2022-09-09T02:28:12;79165.44;;;21.81;100.00
63665;BME280;49820;33.966;73.390;2022-09-09T02:30:44;79168.47;;;22.25;100.00
63665;BME280;49820;33.966;73.390;2022-09-09T02:33:17;79166.59;;;22.60;100.00
63665;BME280;49820;33.966;73.390;2022-09-09T02:35:50;79171.47;;;22.70;100.00
63665;BME280;49820;33.966;73.390;2022-09-09T02:38:26;79172.50;;;22.88;100.00
63665;BME280;49820;33.966;73.390;2022-09-09T02:41:03;79165.22;;;23.20;95.94
63665;BME280;49820;33.966;73.390;2022-09-09T02:43:34;79180.63;;;23.13;95.28
63665;BME280;49820;33.966;73.390;2022-09-09T02:46:43;79185.75;;;23.06;94.03
63665;BME280;49820;33.966;73.390;2022-09-09T02:52:11;79172.72;;;23.55;99.77
63665;BME280;49820;33.966;73.390;2022-09-09T02:54:43;79164.41;;;23.34;88.35
63665;BME280;49820;33.966;73.390;2022-09-09T02:57:21;79182.06;;;23.35;89.15
63665;BME280;49820;33.966;73.390;2022-09-09T02:59:51;79167.34;;;23.30;88.45
63665;BME280;49820;33.966;73.390;2022-09-09T03:02:21;79170.00;;;23.19;92.13
63665;BME280;49820;33.966;73.390;2022-09-09T03:04:54;79147.91;;;23.36;96.34
63665;BME280;49820;33.966;73.390;2022-09-09T03:07:23;79166.75;;;24.65;81.87
63665;BME280;49820;33.966;73.390;2022-09-09T03:09:52;79184.66;;;25.39;80.66
63665;BME280;49820;33.966;73.390;2022-09-09T03:12:25;79174.75;;;24.91;73.40
63665;BME280;49820;33.966;73.390;2022-09-09T03:14:54;79162.44;;;24.47;77.38
63665;BME280;49820;33.966;73.390;2022-09-09T03:17:24;79161.38;;;24.08;78.91
63665;BME280;49820;33.966;73.390;2022-09-09T03:19:55;79166.13;;;23.40;83.72
63665;BME280;49820;33.966;73.390;2022-09-09T03:22:24;79167.00;;;22.77;91.61
63665;BME280;49820;33.966;73.390;2022-09-09T03:24:55;79188.06;;;22.53;94.09
63665;BME280;49820;33.966;73.390;2022-09-09T03:27:25;79161.28;;;21.94;98.50
63665;BME280;49820;33.966;73.390;2022-09-09T03:30:04;79187.03;;;21.45;100.00
63665;BME280;49820;33.966;73.390;2022-09-09T03:32:34;79173.28;;;21.21;100.00
63665;BME280;49820;33.966;73.390;2022-09-09T03:35:03;79193.25;;;21.56;100.00
63665;BME280;49820;33.966;73.390;2022-09-09T03:37:32;79166.00;;;20.90;100.00
63665;BME280;49820;33.966;73.390;2022-09-09T03:40:04;79187.94;;;20.44;100.00
63665;BME280;49820;33.966;73.390;2022-09-09T03:42:36;79198.09;;;20.02;100.00
63665;BME280;49820;33.966;73.390;2022-09-09T03:45:10;79200.13;;;19.72;100.00
63665;BME280;49820;33.966;73.390;2022-09-09T03:47:41;79148.03;;;19.25;100.00
63665;BME280;49820;33.966;73.390;2022-09-09T03:50:10;79194.13;;;19.40;100.00
63665;BME280;49820;33.966;73.390;2022-09-09T03:52:44;79199.50;;;19.25;100.00
63665;BME280;49820;33.966;73.390;2022-09-09T03:55:21;79205.72;;;19.07;100.00
63665;BME280;49820;33.966;73.390;2022-09-09T03:57:50;79180.00;;;18.91;100.00
63665;BME280;49820;33.966;73.390;2022-09-09T04:00:19;79187.88;;;19.43;100.00
63665;BME280;49820;33.966;73.390;2022-09-09T04:02:51;79185.44;;;20.11;100.00
63665;BME280;49820;33.966;73.390;2022-09-09T04:05:22;79169.44;;;20.34;100.00
63665;BME280;49820;33.966;73.390;2022-09-09T04:07:51;79188.97;;;20.79;100.00
63665;BME280;49820;33.966;73.390;2022-09-09T04:10:21;79206.25;;;21.13;100.00
63665;BME280;49820;33.966;73.390;2022-09-09T04:12:53;79197.09;;;21.33;100.00
63665;BME280;49820;33.966;73.390;2022-09-09T04:15:22;79206.03;;;21.45;100.00
63665;BME280;49820;33.966;73.390;2022-09-09T04:17:51;79196.69;;;21.42;100.00
63665;BME280;49820;33.966;73.390;2022-09-09T04:20:20;79188.56;;;21.67;100.00
63665;BME280;49820;33.966;73.390;2022-09-09T04:22:50;79204.81;;;21.94;100.00
63665;BME280;49820;33.966;73.390;2022-09-09T04:25:20;79189.34;;;21.78;100.00
63665;BME280;49820;33.966;73.390;2022-09-09T04:27:58;79206.09;;;21.70;100.00
63665;BME280;49820;33.966;73.390;2022-09-09T04:30:27;79179.94;;;21.37;100.00
63665;BME280;49820;33.966;73.390;2022-09-09T04:32:57;79198.31;;;21.09;100.00
63665;BME280;49820;33.966;73.390;2022-09-09T04:35:26;79203.91;;;20.92;100.00
63665;BME280;49820;33.966;73.390;2022-09-09T04:37:55;79201.50;;;20.86;100.00
63665;BME280;49820;33.966;73.390;2022-09-09T04:40:25;79206.97;;;20.99;100.00
63665;BME280;49820;33.966;73.390;2022-09-09T04:42:55;79191.75;;;20.91;100.00
63665;BME280;49820;33.966;73.390;2022-09-09T04:45:24;79195.69;;;21.35;100.00
63665;BME280;49820;33.966;73.390;2022-09-09T04:47:55;79197.63;;;21.89;100.00
63665;BME280;49820;33.966;73.390;2022-09-09T04:50:24;79206.38;;;22.04;100.00
63665;BME280;49820;33.966;73.390;2022-09-09T04:53:01;79198.41;;;22.25;100.00
63665;BME280;49820;33.966;73.390;2022-09-09T04:55:30;79206.81;;;22.21;100.00
63665;BME280;49820;33.966;73.390;2022-09-09T04:58:07;79177.94;;;22.52;100.00
63665;BME280;49820;33.966;73.390;2022-09-09T05:00:40;79182.06;;;22.38;100.00
63665;BME280;49820;33.966;73.390;2022-09-09T05:03:09;79188.81;;;22.39;100.00
63665;BME280;49820;33.966;73.390;2022-09-09T05:05:38;79194.56;;;22.58;100.00
63665;BME280;49820;33.966;73.390;2022-09-09T05:08:09;79204.56;;;22.87;98.35
63665;BME280;49820;33.966;73.390;2022-09-09T05:10:38;79193.72;;;23.10;100.00
63665;BME280;49820;33.966;73.390;2022-09-09T05:13:12;79199.38;;;23.06;100.00
63665;BME280;49820;33.966;73.390;2022-09-09T05:15:41;79176.72;;;22.61;100.00
63665;BME280;49820;33.966;73.390;2022-09-09T05:18:16;79204.72;;;22.34;100.00
63665;BME280;49820;33.966;73.390;2022-09-09T05:21:02;79198.53;;;22.23;100.00
63665;BME280;49820;33.966;73.390;2022-09-09T05:23:33;79203.41;;;22.46;100.00
63665;BME280;49820;33.966;73.390;2022-09-09T05:26:03;79213.38;;;22.88;100.00
63665;BME280;49820;33.966;73.390;2022-09-09T05:28:34;79212.56;;;23.14;100.00
63665;BME280;49820;33.966;73.390;2022-09-09T05:31:06;79205.63;;;23.28;100.00
63665;BME280;49820;33.966;73.390;2022-09-09T05:33:44;79211.34;;;22.75;100.00
63665;BME280;49820;33.966;73.390;2022-09-09T05:36:17;79189.22;;;22.69;100.00
63665;BME280;49820;33.966;73.390;2022-09-09T05:38:50;79211.88;;;23.27;100.00
63665;BME280;49820;33.966;73.390;2022-09-09T05:41:24;79197.72;;;23.47;100.00
63665;BME280;49820;33.966;73.390;2022-09-09T05:43:56;79202.63;;;23.21;100.00
63665;BME280;49820;33.966;73.390;2022-09-09T05:46:27;79206.41;;;22.91;100.00
63665;BME280;49820;33.966;73.390;2022-09-09T05:48:56;79200.00;;;23.55;100.00
63665;BME280;49820;33.966;73.390;2022-09-09T05:51:30;79202.81;;;24.00;100.00
63665;BME280;49820;33.966;73.390;2022-09-09T05:54:04;79206.66;;;24.50;92.88
63665;BME280;49820;33.966;73.390;2022-09-09T05:56:40;79197.16;;;24.15;100.00
63665;BME280;49820;33.966;73.390;2022-09-09T05:59:09;79206.41;;;25.41;94.34
63665;BME280;49820;33.966;73.390;2022-09-09T06:01:39;79190.78;;;25.39;86.01
63665;BME280;49820;33.966;73.390;2022-09-09T06:04:17;79173.25;;;26.49;76.56
63665;BME280;49820;33.966;73.390;2022-09-09T06:06:48;79192.53;;;26.07;91.36
63665;BME280;49820;33.966;73.390;2022-09-09T06:09:20;79172.41;;;26.21;72.89
63665;BME280;49820;33.966;73.390;2022-09-09T06:11:50;79177.25;;;27.10;71.98
63665;BME280;49820;33.966;73.390;2022-09-09T06:14:21;79180.09;;;27.57;82.00
63665;BME280;49820;33.966;73.390;2022-09-09T06:16:51;79167.72;;;25.68;77.71
63665;BME280;49820;33.966;73.390;2022-09-09T06:19:23;79180.94;;;25.96;79.56
63665;BME280;49820;33.966;73.390;2022-09-09T06:21:58;79170.06;;;27.15;70.53
63665;BME280;49820;33.966;73.390;2022-09-09T06:24:30;79164.16;;;27.21;69.08
63665;BME280;49820;33.966;73.390;2022-09-09T06:27:02;79149.25;;;27.18;71.16
63665;BME280;49820;33.966;73.390;2022-09-09T06:29:35;79166.88;;;27.41;69.78
63665;BME280;49820;33.966;73.390;2022-09-09T06:32:04;79168.03;;;28.10;65.77
63665;BME280;49820;33.966;73.390;2022-09-09T06:34:33;79159.91;;;28.27;62.97
63665;BME280;49820;33.966;73.390;2022-09-09T06:37:04;79166.00;;;28.56;66.00
63665;BME280;49820;33.966;73.390;2022-09-09T06:39:40;79158.81;;;28.33;63.31
63665;BME280;49820;33.966;73.390;2022-09-09T06:42:10;79153.03;;;27.62;64.64
63665;BME280;49820;33.966;73.390;2022-09-09T06:45:03;79132.13;;;29.30;63.22
63665;BME280;49820;33.966;73.390;2022-09-09T06:47:44;79169.53;;;28.82;61.33
63665;BME280;49820;33.966;73.390;2022-09-09T06:50:14;79156.84;;;28.03;65.39
63665;BME280;49820;33.966;73.390;2022-09-09T06:52:46;79158.13;;;26.50;74.60
63665;BME280;49820;33.966;73.390;2022-09-09T06:55:16;79160.34;;;25.97;74.77
63665;BME280;49820;33.966;73.390;2022-09-09T06:57:46;79147.28;;;25.25;76.08
63665;BME280;49820;33.966;73.390;2022-09-09T07:00:22;79141.69;;;24.95;78.40
63665;BME280;49820;33.966;73.390;2022-09-09T07:02:51;79145.66;;;24.53;88.84
63665;BME280;49820;33.966;73.390;2022-09-09T07:05:22;79122.34;;;24.44;93.02
63665;BME280;49820;33.966;73.390;2022-09-09T07:07:54;79131.97;;;24.43;89.34
63665;BME280;49820;33.966;73.390;2022-09-09T07:10:24;79134.19;;;24.29;95.04
63665;BME280;49820;33.966;73.390;2022-09-09T07:12:53;79111.31;;;24.67;89.76
63665;BME280;49820;33.966;73.390;2022-09-09T07:15:25;79132.06;;;26.90;79.08
63665;BME280;49820;33.966;73.390;2022-09-09T07:17:55;79120.13;;;27.98;75.00
63665;BME280;49820;33.966;73.390;2022-09-09T07:20:24;79110.44;;;28.27;75.58
63665;BME280;49820;33.966;73.390;2022-09-09T07:24:26;79120.34;;;29.57;83.38
63665;BME280;49820;33.966;73.390;2022-09-09T07:27:24;79130.69;;;28.04;65.29
63665;BME280;49820;33.966;73.390;2022-09-09T07:29:54;79116.31;;;26.31;74.11
63665;BME280;49820;33.966;73.390;2022-09-09T07:32:24;79120.47;;;25.89;90.79
63665;BME280;49820;33.966;73.390;2022-09-09T07:34:54;79116.78;;;25.52;81.77
63665;BME280;49820;33.966;73.390;2022-09-09T07:37:23;79104.97;;;24.92;82.83
63665;BME280;49820;33.966;73.390;2022-09-09T07:40:08;79108.03;;;24.32;93.17
63665;BME280;49820;33.966;73.390;2022-09-09T07:42:37;79119.72;;;24.20;93.90
63665;BME280;49820;33.966;73.390;2022-09-09T07:45:06;79104.31;;;24.04;94.32
63665;BME280;49820;33.966;73.390;2022-09-09T07:47:36;79095.44;;;23.93;93.28
63665;BME280;49820;33.966;73.390;2022-09-09T07:50:05;79079.34;;;23.55;100.00
63665;BME280;49820;33.966;73.390;2022-09-09T07:52:37;79089.19;;;23.50;100.00
63665;BME280;49820;33.966;73.390;2022-09-09T07:55:13;79095.81;;;23.53;100.00
63665;BME280;49820;33.966;73.390;2022-09-09T07:57:43;79079.34;;;24.00;100.00
63665;BME280;49820;33.966;73.390;2022-09-09T08:00:13;79073.28;;;25.48;92.78
63665;BME280;49820;33.966;73.390;2022-09-09T08:02:49;79087.78;;;25.25;94.50
63665;BME280;49820;33.966;73.390;2022-09-09T08:05:19;79059.66;;;25.05;89.03
63665;BME280;49820;33.966;73.390;2022-09-09T08:08:02;79085.25;;;24.15;95.41
63665;BME280;49820;33.966;73.390;2022-09-09T08:10:32;79075.34;;;23.65;100.00
63665;BME280;49820;33.966;73.390;2022-09-09T08:13:01;79085.34;;;23.34;100.00
63665;BME280;49820;33.966;73.390;2022-09-09T08:15:47;79059.19;;;22.93;100.00
63665;BME280;49820;33.966;73.390;2022-09-09T08:18:22;79061.63;;;22.73;100.00
63665;BME280;49820;33.966;73.390;2022-09-09T08:20:57;79038.88;;;22.66;100.00
63665;BME280;49820;33.966;73.390;2022-09-09T08:23:27;79007.16;;;22.50;100.00
63665;BME280;49820;33.966;73.390;2022-09-09T08:26:04;79065.03;;;22.97;100.00
63665;BME280;49820;33.966;73.390;2022-09-09T08:28:33;79046.28;;;22.68;100.00
63665;BME280;49820;33.966;73.390;2022-09-09T08:31:10;79050.72;;;22.50;100.00
63665;BME280;49820;33.966;73.390;2022-09-09T08:33:42;79046.56;;;22.15;100.00
63665;BME280;49820;33.966;73.390;2022-09-09T08:36:22;79037.78;;;21.89;100.00
63665;BME280;49820;33.966;73.390;2022-09-09T08:38:54;79046.81;;;21.98;100.00
63665;BME280;49820;33.966;73.390;2022-09-09T08:50:30;79016.09;;;21.26;100.00
63665;BME280;49820;33.966;73.390;2022-09-09T08:53:21;79044.47;;;21.42;100.00
63665;BME280;49820;33.966;73.390;2022-09-09T08:55:58;79019.25;;;21.18;100.00
63665;BME280;49820;33.966;73.390;2022-09-09T08:58:55;79006.72;;;21.10;100.00
63665;BME280;49820;33.966;73.390;2022-09-09T09:04:55;78991.31;;;21.07;100.00
63665;BME280;49820;33.966;73.390;2022-09-09T09:10:48;79000.53;;;21.50;100.00
63665;BME280;49820;33.966;73.390;2022-09-09T09:13:34;78988.28;;;21.25;100.00
63665;BME280;49820;33.966;73.390;2022-09-09T09:16:34;78982.47;;;22.05;100.00
63665;BME280;49820;33.966;73.390;2022-09-09T09:19:13;78970.72;;;22.09;100.00
63665;BME280;49820;33.966;73.390;2022-09-09T09:21:51;78971.31;;;22.22;100.00
63665;BME280;49820;33.966;73.390;2022-09-09T09:24:33;78972.91;;;24.10;100.00
63665;BME280;49820;33.966;73.390;2022-09-09T09:27:18;78966.94;;;22.97;100.00
63665;BME280;49820;33.966;73.390;2022-09-09T09:29:54;78956.41;;;23.25;100.00
63665;BME280;49820;33.966;73.390;2022-09-09T09:33:02;78964.13;;;22.29;100.00
63665;BME280;49820;33.966;73.390;2022-09-09T09:35:35;78938.06;;;21.73;100.00
63665;BME280;49820;33.966;73.390;2022-09-09T09:38:23;78964.13;;;21.93;100.00
63665;BME280;49820;33.966;73.390;2022-09-09T09:41:16;78934.19;;;21.57;100.00
63665;BME280;49820;33.966;73.390;2022-09-09T09:43:53;78959.81;;;23.47;100.00
63665;BME280;49820;33.966;73.390;2022-09-09T09:46:24;78934.41;;;24.67;100.00
63665;BME280;49820;33.966;73.390;2022-09-09T09:49:08;78946.91;;;24.32;100.00
63665;BME280;49820;33.966;73.390;2022-09-09T09:51:42;78936.91;;;23.97;100.00
63665;BME280;49820;33.966;73.390;2022-09-09T09:56:47;78940.91;;;24.73;100.00
63665;BME280;49820;33.966;73.390;2022-09-09T10:02:25;78934.03;;;25.44;97.15
63665;BME280;49820;33.966;73.390;2022-09-09T10:05:17;78929.50;;;24.17;100.00
63665;BME280;49820;33.966;73.390;2022-09-09T10:08:13;78942.03;;;24.86;100.00
63665;BME280;49820;33.966;73.390;2022-09-09T10:19:33;78927.00;;;24.55;100.00
63665;BME280;49820;33.966;73.390;2022-09-09T10:22:38;78932.63;;;23.89;100.00
63665;BME280;49820;33.966;73.390;2022-09-09T10:25:32;78930.97;;;23.39;100.00
63665;BME280;49820;33.966;73.390;2022-09-09T10:28:29;78924.00;;;22.98;100.00
63665;BME280;49820;33.966;73.390;2022-09-09T10:34:33;78936.00;;;22.33;100.00
63665;BME280;49820;33.966;73.390;2022-09-09T10:40:06;78933.47;;;21.82;100.00
63665;BME280;49820;33.966;73.390;2022-09-09T10:42:44;78925.06;;;21.63;100.00
63665;BME280;49820;33.966;73.390;2022-09-09T10:48:05;78921.78;;;21.60;100.00
63665;BME280;49820;33.966;73.390;2022-09-09T10:50:54;78909.06;;;21.57;100.00
63665;BME280;49820;33.966;73.390;2022-09-09T10:56:24;78910.31;;;21.47;100.00
63665;BME280;49820;33.966;73.390;2022-09-09T10:59:15;78901.66;;;21.19;100.00
63665;BME280;49820;33.966;73.390;2022-09-09T11:02:01;78916.53;;;21.20;100.00
63665;BME280;49820;33.966;73.390;2022-09-09T11:04:37;78918.75;;;21.90;100.00
63665;BME280;49820;33.966;73.390;2022-09-09T11:07:13;78913.50;;;21.98;100.00
63665;BME280;49820;33.966;73.390;2022-09-09T11:09:50;78930.50;;;21.63;100.00
63665;BME280;49820;33.966;73.390;2022-09-09T11:12:23;78907.63;;;21.22;100.00
63665;BME280;49820;33.966;73.390;2022-09-09T11:15:20;78917.75;;;20.98;100.00
63665;BME280;49820;33.966;73.390;2022-09-09T11:17:56;78907.97;;;20.78;100.00
63665;BME280;49820;33.966;73.390;2022-09-09T11:20:28;78918.19;;;20.65;100.00
63665;BME280;49820;33.966;73.390;2022-09-09T11:23:14;78909.28;;;20.53;100.00
63665;BME280;49820;33.966;73.390;2022-09-09T11:25:50;78885.59;;;20.27;100.00
63665;BME280;49820;33.966;73.390;2022-09-09T11:36:49;78923.34;;;20.18;100.00
63665;BME280;49820;33.966;73.390;2022-09-09T11:39:44;78917.56;;;20.11;100.00
63665;BME280;49820;33.966;73.390;2022-09-09T11:42:23;78918.44;;;20.08;100.00
63665;BME280;49820;33.966;73.390;2022-09-09T11:44:52;78911.97;;;19.88;100.00
63665;BME280;49820;33.966;73.390;2022-09-09T11:47:28;78913.09;;;19.93;100.00
63665;BME280;49820;33.966;73.390;2022-09-09T11:52:49;78931.59;;;19.89;100.00
63665;BME280;49820;33.966;73.390;2022-09-09T11:55:30;78935.06;;;19.87;100.00
63665;BME280;49820;33.966;73.390;2022-09-09T11:58:03;78923.34;;;19.78;100.00
63665;BME280;49820;33.966;73.390;2022-09-09T12:03:06;78920.94;;;19.72;100.00
63665;BME280;49820;33.966;73.390;2022-09-09T12:05:56;78915.66;;;19.83;100.00
63665;BME280;49820;33.966;73.390;2022-09-09T12:08:30;78874.59;;;19.63;100.00
63665;BME280;49820;33.966;73.390;2022-09-09T12:10:59;78902.09;;;19.83;100.00
63665;BME280;49820;33.966;73.390;2022-09-09T12:13:28;78889.56;;;19.62;100.00
63665;BME280;49820;33.966;73.390;2022-09-09T12:16:00;78919.34;;;19.77;100.00
63665;BME280;49820;33.966;73.390;2022-09-09T12:18:36;78927.31;;;19.66;100.00
63665;BME280;49820;33.966;73.390;2022-09-09T12:24:09;78928.53;;;19.69;100.00
63665;BME280;49820;33.966;73.390;2022-09-09T12:29:23;78927.91;;;19.54;100.00
63665;BME280;49820;33.966;73.390;2022-09-09T12:32:11;78922.88;;;19.46;100.00
63665;BME280;49820;33.966;73.390;2022-09-09T12:34:44;78889.91;;;19.14;100.00
63665;BME280;49820;33.966;73.390;2022-09-09T12:37:29;78899.16;;;19.19;100.00
63665;BME280;49820;33.966;73.390;2022-09-09T12:40:04;78919.03;;;19.28;100.00
63665;BME280;49820;33.966;73.390;2022-09-09T12:42:40;78905.09;;;19.22;100.00
63665;BME280;49820;33.966;73.390;2022-09-09T12:45:18;78919.75;;;19.27;100.00
63665;BME280;49820;33.966;73.390;2022-09-09T12:50:36;78924.72;;;19.22;100.00
63665;BME280;49820;33.966;73.390;2022-09-09T12:53:10;78912.06;;;19.04;100.00
63665;BME280;49820;33.966;73.390;2022-09-09T12:58:23;78925.06;;;19.01;100.00
63665;BME280;49820;33.966;73.390;2022-09-09T13:00:54;78934.56;;;19.00;100.00
63665;BME280;49820;33.966;73.390;2022-09-09T13:03:27;78914.78;;;18.89;100.00
63665;BME280;49820;33.966;73.390;2022-09-09T13:06:18;78923.94;;;18.96;100.00
63665;BME280;49820;33.966;73.390;2022-09-09T13:08:54;78932.25;;;18.92;100.00
63665;BME280;49820;33.966;73.390;2022-09-09T13:11:36;78934.97;;;18.92;100.00
63665;BME280;49820;33.966;73.390;2022-09-09T13:14:16;78921.44;;;18.78;100.00
63665;BME280;49820;33.966;73.390;2022-09-09T13:17:02;78929.28;;;18.84;100.00
63665;BME280;49820;33.966;73.390;2022-09-09T13:19:36;78917.25;;;18.66;100.00
63665;BME280;49820;33.966;73.390;2022-09-09T13:22:37;78942.00;;;18.73;100.00
63665;BME280;49820;33.966;73.390;2022-09-09T13:27:55;78942.63;;;18.73;100.00
63665;BME280;49820;33.966;73.390;2022-09-09T13:30:31;78934.72;;;18.69;100.00
63665;BME280;49820;33.966;73.390;2022-09-09T13:33:37;78935.44;;;18.67;100.00
63665;BME280;49820;33.966;73.390;2022-09-09T13:36:09;78940.56;;;18.74;100.00
63665;BME280;49820;33.966;73.390;2022-09-09T13:38:53;78929.75;;;18.59;100.00
63665;BME280;49820;33.966;73.390;2022-09-09T13:44:01;78937.69;;;18.63;100.00
63665;BME280;49820;33.966;73.390;2022-09-09T13:46:37;78932.84;;;18.65;100.00
63665;BME280;49820;33.966;73.390;2022-09-09T13:49:28;78934.44;;;18.60;100.00
63665;BME280;49820;33.966;73.390;2022-09-09T13:52:12;78934.13;;;18.52;100.00
63665;BME280;49820;33.966;73.390;2022-09-09T13:54:42;78930.03;;;18.53;100.00
63665;BME280;49820;33.966;73.390;2022-09-09T13:57:19;78938.06;;;18.55;100.00
63665;BME280;49820;33.966;73.390;2022-09-09T13:59:48;78934.22;;;18.50;100.00
63665;BME280;49820;33.966;73.390;2022-09-09T14:02:32;78919.94;;;18.37;100.00
63665;BME280;49820;33.966;73.390;2022-09-09T14:05:02;78934.41;;;18.46;100.00
63665;BME280;49820;33.966;73.390;2022-09-09T14:07:33;78929.09;;;18.44;100.00
63665;BME280;49820;33.966;73.390;2022-09-09T14:10:02;78938.44;;;18.47;100.00
63665;BME280;49820;33.966;73.390;2022-09-09T14:12:31;78939.81;;;18.46;100.00
63665;BME280;49820;33.966;73.390;2022-09-09T14:15:00;78931.22;;;18.41;100.00
63665;BME280;49820;33.966;73.390;2022-09-09T14:17:29;78937.28;;;18.42;100.00
63665;BME280;49820;33.966;73.390;2022-09-09T14:19:59;78961.38;;;18.48;100.00
63665;BME280;49820;33.966;73.390;2022-09-09T14:22:28;78938.44;;;18.32;100.00
63665;BME280;49820;33.966;73.390;2022-09-09T14:24:57;78943.63;;;18.36;100.00
63665;BME280;49820;33.966;73.390;2022-09-09T14:27:26;78945.22;;;18.31;100.00
63665;BME280;49820;33.966;73.390;2022-09-09T14:29:55;78959.94;;;18.34;100.00
63665;BME280;49820;33.966;73.390;2022-09-09T14:32:26;78950.25;;;18.24;100.00
63665;BME280;49820;33.966;73.390;2022-09-09T14:34:55;78942.50;;;18.16;100.00
63665;BME280;49820;33.966;73.390;2022-09-09T14:37:24;78955.75;;;18.22;100.00
63665;BME280;49820;33.966;73.390;2022-09-09T14:39:53;78951.91;;;18.17;100.00
63665;BME280;49820;33.966;73.390;2022-09-09T14:42:24;78931.38;;;17.93;100.00
63665;BME280;49820;33.966;73.390;2022-09-09T14:44:54;78956.28;;;18.10;100.00
63665;BME280;49820;33.966;73.390;2022-09-09T14:47:23;78937.44;;;17.93;100.00
63665;BME280;49820;33.966;73.390;2022-09-09T14:49:52;78967.03;;;18.12;100.00
63665;BME280;49820;33.966;73.390;2022-09-09T14:52:21;78958.69;;;18.02;100.00
63665;BME280;49820;33.966;73.390;2022-09-09T14:54:50;78958.16;;;17.99;100.00
63665;BME280;49820;33.966;73.390;2022-09-09T14:57:19;78963.44;;;18.01;100.00
63665;BME280;49820;33.966;73.390;2022-09-09T14:59:49;78965.78;;;17.95;100.00
63665;BME280;49820;33.966;73.390;2022-09-09T15:02:18;78964.66;;;17.89;100.00
63665;BME280;49820;33.966;73.390;2022-09-09T15:04:47;78950.34;;;17.76;100.00
63665;BME280;49820;33.966;73.390;2022-09-09T15:07:18;78955.75;;;17.76;100.00
63665;BME280;49820;33.966;73.390;2022-09-09T15:09:47;78971.81;;;17.80;100.00
63665;BME280;49820;33.966;73.390;2022-09-09T15:12:17;78960.97;;;17.66;100.00
63665;BME280;49820;33.966;73.390;2022-09-09T15:14:49;78972.31;;;17.68;100.00
63665;BME280;49820;33.966;73.390;2022-09-09T15:17:18;78973.41;;;17.59;100.00